Report METAR

 

LJLJ - Ljubljana/Brnik, Slovenia
Distance from station: O 41km
Dati ricevuti: 12/08/2020 16:00
Nearby thunderstorm, Parz. nuvoloso
Nearby thunderstorm, Parz. nuvoloso
 Vento da ENE
Vento: ENE 19 km/h
Temperatura: 26°C
P.to Rugiada: 18°C
Umidità: 61%
Barometro: 1018 hPa
Summary: Nearby Thunderstorm
Nuvole: Parz. nuvoloso
Visibility: 10 km
Cloud details: Few Clouds 1006 m
Parz. nuvoloso 1250 m
2020/08/12 14:00 LJLJ 121400Z 07010KT 9999 VCTS FEW033CB SCT041 26/18 Q1018 NOSIG
LJMB - Maribor, Slovenia
Distance from station: NE 63km
Dati ricevuti: 12/08/2020 16:00
Molto nuvoloso
Molto nuvoloso
 Vento da Variabile
Vento: Variabile 2 km/h
Temperatura: 28°C
Indice di Calore: 29°C
P.to Rugiada: 18°C
Umidità: 55%
Barometro: 1018 hPa
Nuvole: Molto nuvoloso
Visibility: 10 km
Cloud details: Few Clouds 1311 m
Parz. nuvoloso 1402 m
Molto nuvoloso 7620 m
2020/08/12 14:00 LJMB 121400Z VRB01KT 9999 FEW043TCU SCT046 BKN250 28/18 Q1018
 
LJPZ - Portoroz, Slovenia
Distance from station: SO 130km
Dati ricevuti: 12/08/2020 16:00
Few Clouds
Few Clouds
 Vento da ONO
Vento: ONO 6 km/h
Temperatura: 31°C
Indice di Calore: 33°C
P.to Rugiada: 20°C
Umidità: 52%
Barometro: 1015 hPa
Nuvole: Few Clouds
Visibility: 10 km
Cloud details: Few Clouds 1219 m
2020/08/12 14:00 LJPZ 121400Z 30003KT 240V340 9999 FEW040TCU 31/20 Q1015
LJCE - Cerklje, Slovenia
Distance from station: ESE 49km
Dati ricevuti: 12/08/2020 16:00
Few Clouds
Few Clouds
 Vento da E
Vento: E 9 km/h
Temperatura: 29°C
Indice di Calore: 30°C
P.to Rugiada: 19°C
Umidità: 55%
Barometro: 1017 hPa
Nuvole: Few Clouds
Visibility: 10 km
Cloud details: Few Clouds 1067 m
2020/08/12 14:00 LJCE 121400Z 08005KT 040V130 9999 FEW035 29/19 Q1017 RMK BLU
 
LDZA - Zagreb/Pleso, Croatia
Distance from station: ESE 96km
Dati ricevuti: 12/08/2020 16:00
Few Clouds
Few Clouds
 Vento da NE
Vento: NE 9 km/h
Temperatura: 29°C
Indice di Calore: 31°C
P.to Rugiada: 20°C
Umidità: 58%
Barometro: 1016 hPa
Nuvole: Few Clouds
Visibility: 10 km
Cloud details: Few Clouds 1219 m
2020/08/12 14:00 LDZA 121400Z 05005KT 360V110 9999 FEW040 29/20 Q1016 NOSIG
LDRI - Rijeka/Omisalj, Croatia
Distance from station: SSO 109km
Dati ricevuti: 12/08/2020 16:00
Parz. nuvoloso
Parz. nuvoloso
 Vento da N
Vento: N 11 km/h
Temperatura: 29°C
Indice di Calore: 31°C
P.to Rugiada: 20°C
Umidità: 58%
Barometro: 1016 hPa
Nuvole: Parz. nuvoloso
Visibility: 10 km
Cloud details: Few Clouds 1372 m
Parz. nuvoloso 1372 m
2020/08/12 14:00 LDRI 121400Z 01006KT 340V060 9999 FEW045TCU SCT045 29/20 Q1016
 
LDPL - Pula, Croatia
Distance from station: SSO 164km
Dati ricevuti: 12/08/2020 16:00
Few Clouds
Few Clouds
 Vento da O
Vento: O 13 km/h
Temperatura: 31°C
Indice di Calore: 33°C
P.to Rugiada: 20°C
Umidità: 52%
Barometro: 1015 hPa
Nuvole: Few Clouds
Visibility: 10 km
Cloud details: Few Clouds 1189 m
2020/08/12 14:00 LDPL 121400Z 28007KT 260V320 9999 FEW039TCU 31/20 Q1015 NOSIG
LOWK - Klagenfurt(Civ/M, Austria
Distance from station: NO 76km
Dati ricevuti: 12/08/2020 15:50
Few Clouds
Few Clouds
 Vento da E
Vento: E 6 km/h
Temperatura: 27°C
Indice di Calore: 28°C
P.to Rugiada: 16°C
Umidità: 51%
Barometro: 1018 hPa
Nuvole: Few Clouds
Visibility: 10 km
Cloud details: Few Clouds 1524 m
Few Clouds 1524 m
2020/08/12 13:50 LOWK 121350Z 10003KT 040V150 9999 FEW050 FEW050CB 27/16 Q1018 NOSIG
 
LOWG - Graz (mil/Civ), Austria
Distance from station: NNE 100km
Dati ricevuti: 12/08/2020 15:50
Few Clouds
Few Clouds
 Vento da SE
Vento: SE 9 km/h
Temperatura: 28°C
Indice di Calore: 28°C
P.to Rugiada: 17°C
Umidità: 51%
Barometro: 1018 hPa
Nuvole: Few Clouds
Visibility: 10 km
Cloud details: Few Clouds 1219 m
Few Clouds 1524 m
2020/08/12 13:50 LOWG 121350Z 13005KT 090V220 9999 FEW040 FEW050CB 28/17 Q1018 NOSIG
LOAN - Wr.neustadt East, Austria
Distance from station: NNE 212km
Dati ricevuti: 12/08/2020 16:00
Parz. nuvoloso
Parz. nuvoloso
 Vento da SSE
Vento: SSE 15 km/h
Nuvole: Parz. nuvoloso
Cloud details: Parz. nuvoloso 1067 m
2020/08/12 14:00 LOAN 121400Z 15008KT 40KM SCT035CU
 
LIPQ - Ronchi Legionari, Italy
Distance from station: SO 35km
Dati ricevuti: 12/08/2020 15:50
Sereno
Sereno
 Vento da SSO
Vento: SSO 13 km/h
Temperatura: 32°C
Indice di Calore: 34°C
P.to Rugiada: 20°C
Umidità: 49%
Barometro: 1015 hPa
Nuvole: Sereno
Visibility: 10 km
2020/08/12 13:50 LIPQ 121350Z AUTO 21007KT 190V260 9999 NCD 32/20 Q1015
LIVT - Trieste, Italy
Distance from station: OSO 109km
Dati ricevuti: 12/08/2020 15:55
Few Clouds
Few Clouds
 Vento da Variabile
Vento: Variabile 0 km/h
Temperatura: 30°C
Indice di Calore: 33°C
P.to Rugiada: 22°C
Umidità: 62%
Barometro: 1015 hPa
Nuvole: Few Clouds
Visibility: 10 km
Cloud details: Few Clouds 914 m
2020/08/12 13:55 LIVT 121355Z /////KT 9999 FEW030 30/22 Q1015 RMK FEW QUK 1 QUL 0 VIS MAR 20 KM VIS MIN 9999
 
LIVO - Tarvisio, Italy
Distance from station: NNO 49km
Dati ricevuti: 12/08/2020 15:55
Parz. nuvoloso
Parz. nuvoloso
 Vento da E
Vento: E 6 km/h
Temperatura: 25°C
P.to Rugiada: 20°C
Umidità: 74%
Barometro: 1018 hPa
Nuvole: Parz. nuvoloso
Visibility: 10 km
Cloud details: Parz. nuvoloso 762 m
2020/08/12 13:55 LIVO 121355Z 09003KT 9999 SCT025 25/20 Q1018 RMK SCT VIS MIN 9999
LIPZ - Venezia/Tessera, Italy
Distance from station: OSO 217km
Dati ricevuti: 12/08/2020 15:50
Sereno
Sereno
 Vento da SSE
Vento: SSE 7 km/h
Temperatura: 31°C
Indice di Calore: 34°C
P.to Rugiada: 21°C
Umidità: 55%
Barometro: 1015 hPa
Summary: Sereno
Visibility: superiore a 10 km
2020/08/12 13:50 LIPZ 121350Z 16004KT 130V200 CAVOK 31/21 Q1015 NOSIG
 
LHSM - Balaton, Hungary
Distance from station: ENE 177km
Dati ricevuti: 12/08/2020 15:45
Sereno
Sereno
 Vento da O
Vento: O 6 km/h
Temperatura: 29°C
Indice di Calore: 29°C
P.to Rugiada: 17°C
Umidità: 48%
Barometro: 1017 hPa
Summary: Sereno
Visibility: superiore a 10 km
2020/08/12 13:45 LHSM 121345Z AUTO 26003KT 200V350 CAVOK 29/17 Q1017 NOSIG